Time;durP1;ratioP1;P1;durP2;ratioP2;P2;SDS_P1;SDS_P2;PMS_P1;PMS_P2;Temp;Humidity;BMP_temperature;BMP_pressure;BME280_temperature;BME280_humidity;BME280_pressure;Samples;Min_cycle;Max_cycle;Signal;HPM_P1;HPM_P2
2021/04/22 00:00:54;;;;;;;6.05;2.58;;;;;;;;;;5073792;28;20426;-44
2021/04/22 00:03:20;;;;;;;4.47;2.70;;;;;;;;;;5073100;28;20044;-43
2021/04/22 00:05:46;;;;;;;4.75;2.50;;;;;;;;;;5073633;28;20067;-43
2021/04/22 00:08:12;;;;;;;4.18;1.95;;;;;;;;;;5073679;28;20020;-45
2021/04/22 00:10:45;;;;;;;4.22;2.22;;;;;;;;;;5073300;28;20111;-44
2021/04/22 00:13:13;;;;;;;5.18;2.42;;;;;;;;;;5073500;28;20028;-44
2021/04/22 00:15:39;;;;;;;4.78;2.20;;;;;;;;;;5073538;28;20016;-45
2021/04/22 00:18:06;;;;;;;5.43;2.38;;;;;;;;;;5073101;28;20518;-44
2021/04/22 00:20:33;;;;;;;6.20;2.35;;;;;;;;;;5073455;28;20437;-43
2021/04/22 00:22:59;;;;;;;5.03;2.40;;;;;;;;;;5073291;28;20098;-43
2021/04/22 00:25:25;;;;;;;5.72;2.55;;;;;;;;;;5073290;28;20035;-43
2021/04/22 00:27:51;;;;;;;5.35;2.60;;;;;;;;;;5072965;28;20032;-44
2021/04/22 00:30:18;;;;;;;6.07;2.47;;;;;;;;;;5073105;28;20475;-45
2021/04/22 00:32:44;;;;;;;4.40;2.30;;;;;;;;;;5073243;28;20123;-43
2021/04/22 00:35:11;;;;;;;4.57;2.17;;;;;;;;;;5072740;28;20380;-43
2021/04/22 00:37:38;;;;;;;5.07;2.22;;;;;;;;;;5073121;28;20046;-42
2021/04/22 00:40:08;;;;;;;4.93;2.70;;;;;;;;;;5073160;28;20025;-43
2021/04/22 00:42:34;;;;;;;4.13;2.10;;;;;;;;;;5072786;28;20111;-43
2021/04/22 00:45:01;;;;;;;4.10;2.15;;;;;;;;;;5072656;28;20039;-43
2021/04/22 00:47:27;;;;;;;5.07;2.20;;;;;;;;;;5072597;28;20032;-43
2021/04/22 00:49:53;;;;;;;4.68;2.45;;;;;;;;;;5072363;28;20112;-44
2021/04/22 00:52:19;;;;;;;5.05;2.20;;;;;;;;;;5072592;28;20395;-43
2021/04/22 00:54:46;;;;;;;5.35;2.70;;;;;;;;;;5072791;28;20029;-43
2021/04/22 00:57:12;;;;;;;4.78;2.53;;;;;;;;;;5072543;28;20031;-46
2021/04/22 00:59:38;;;;;;;4.07;2.15;;;;;;;;;;5072386;28;20028;-43
2021/04/22 01:02:14;;;;;;;4.60;2.30;;;;;;;;;;5072599;28;20024;-43
2021/04/22 01:04:40;;;;;;;4.80;2.30;;;;;;;;;;5072202;28;20024;-44
2021/04/22 01:07:07;;;;;;;4.70;2.63;;;;;;;;;;5072408;28;20034;-43
2021/04/22 01:09:33;;;;;;;4.35;2.42;;;;;;;;;;5072456;28;20024;-44
2021/04/22 01:12:01;;;;;;;4.95;2.58;;;;;;;;;;5072581;28;20100;-43
2021/04/22 01:14:27;;;;;;;5.30;2.72;;;;;;;;;;5072592;28;20468;-44
2021/04/22 01:16:54;;;;;;;6.85;2.80;;;;;;;;;;5072248;28;20025;-44
2021/04/22 01:19:20;;;;;;;4.45;2.47;;;;;;;;;;5072113;28;20060;-43
2021/04/22 01:21:46;;;;;;;4.85;2.63;;;;;;;;;;5072513;28;20047;-43
2021/04/22 01:24:12;;;;;;;4.93;2.33;;;;;;;;;;5072238;28;20021;-43
2021/04/22 01:26:39;;;;;;;4.38;2.47;;;;;;;;;;5071826;28;20121;-43
2021/04/22 01:29:05;;;;;;;6.05;2.47;;;;;;;;;;5072323;28;20039;-43
2021/04/22 01:31:31;;;;;;;5.40;2.65;;;;;;;;;;5072295;28;20027;-43
2021/04/22 01:36:38;;;;;;;4.45;2.30;;;;;;;;;;5128468;22;20057;-43
2021/04/22 01:39:06;;;;;;;6.13;2.55;;;;;;;;;;5031548;28;20037;-44
2021/04/22 01:41:32;;;;;;;6.70;2.95;;;;;;;;;;5031410;28;20029;-43
2021/04/22 01:43:58;;;;;;;6.00;3.00;;;;;;;;;;5031422;28;20057;-43
2021/04/22 01:46:24;;;;;;;6.68;3.35;;;;;;;;;;5031344;28;20068;-43
2021/04/22 01:48:51;;;;;;;6.25;2.85;;;;;;;;;;5031614;28;20488;-43
2021/04/22 01:51:17;;;;;;;5.88;2.80;;;;;;;;;;5031424;28;20025;-43
2021/04/22 01:53:43;;;;;;;4.85;2.33;;;;;;;;;;5031310;28;20029;-43
2021/04/22 01:56:09;;;;;;;5.75;2.80;;;;;;;;;;5031466;28;20102;-43
2021/04/22 01:58:35;;;;;;;4.88;2.45;;;;;;;;;;5031232;28;20464;-44
2021/04/22 02:01:02;;;;;;;4.68;2.30;;;;;;;;;;5031234;28;20042;-44
2021/04/22 02:03:30;;;;;;;6.70;3.17;;;;;;;;;;5031259;28;20385;-43
2021/04/22 02:05:56;;;;;;;5.20;2.92;;;;;;;;;;5031209;28;20045;-43
2021/04/22 02:08:23;;;;;;;5.43;2.80;;;;;;;;;;5031396;28;20416;-43
2021/04/22 02:10:49;;;;;;;7.47;3.63;;;;;;;;;;5031182;28;20100;-44
2021/04/22 02:13:17;;;;;;;7.53;3.80;;;;;;;;;;5031168;28;20032;-43
2021/04/22 02:15:44;;;;;;;8.05;4.47;;;;;;;;;;5031090;28;20488;-43
2021/04/22 02:18:10;;;;;;;7.05;3.55;;;;;;;;;;5031249;28;20527;-43
2021/04/22 02:20:36;;;;;;;7.28;3.05;;;;;;;;;;5030815;28;20473;-42
2021/04/22 02:23:03;;;;;;;4.53;2.40;;;;;;;;;;5031034;28;20112;-45
2021/04/22 02:25:30;;;;;;;4.68;2.42;;;;;;;;;;5030911;28;20042;-43
2021/04/22 02:27:57;;;;;;;6.75;2.35;;;;;;;;;;5030946;28;20448;-44
2021/04/22 02:30:25;;;;;;;9.25;3.90;;;;;;;;;;5031188;28;20084;-45
2021/04/22 02:32:51;;;;;;;24.08;8.80;;;;;;;;;;5030934;28;20155;-44
2021/04/22 02:35:19;;;;;;;46.55;11.25;;;;;;;;;;5030589;28;20057;-43
2021/04/22 02:37:46;;;;;;;35.25;9.73;;;;;;;;;;5033062;28;20040;-43
2021/04/22 02:40:15;;;;;;;14.93;5.53;;;;;;;;;;5034709;28;20425;-42
2021/04/22 02:42:41;;;;;;;12.00;4.47;;;;;;;;;;5034823;28;20026;-44
2021/04/22 02:45:08;;;;;;;6.90;2.90;;;;;;;;;;5034332;28;20030;-43
2021/04/22 02:47:34;;;;;;;5.93;2.78;;;;;;;;;;5034357;28;20166;-44
2021/04/22 02:50:01;;;;;;;6.78;3.22;;;;;;;;;;5034360;28;20440;-43
2021/04/22 02:52:27;;;;;;;10.00;4.25;;;;;;;;;;5034321;28;20107;-43
2021/04/22 02:54:53;;;;;;;11.20;5.22;;;;;;;;;;5034165;28;20049;-47
2021/04/22 02:57:19;;;;;;;9.30;4.57;;;;;;;;;;5034117;28;20473;-43
2021/04/22 02:59:45;;;;;;;12.13;4.60;;;;;;;;;;5034072;28;20033;-42
2021/04/22 03:02:11;;;;;;;13.52;5.63;;;;;;;;;;5034190;28;20132;-43
2021/04/22 03:04:37;;;;;;;9.93;4.18;;;;;;;;;;5033891;28;20063;-43
2021/04/22 03:07:03;;;;;;;8.57;4.07;;;;;;;;;;5033800;28;20103;-43
2021/04/22 03:09:29;;;;;;;11.80;4.47;;;;;;;;;;5034241;28;20025;-43
2021/04/22 03:11:56;;;;;;;15.95;5.75;;;;;;;;;;5033911;28;20021;-45
2021/04/22 03:14:22;;;;;;;7.53;3.42;;;;;;;;;;5034021;28;20519;-43
2021/04/22 03:16:48;;;;;;;9.93;4.43;;;;;;;;;;5033814;28;20032;-43
2021/04/22 03:19:14;;;;;;;11.77;4.60;;;;;;;;;;5033805;28;20037;-43
2021/04/22 03:21:40;;;;;;;31.55;9.98;;;;;;;;;;5033619;28;20473;-43
2021/04/22 03:24:07;;;;;;;28.42;9.30;;;;;;;;;;5033671;28;20021;-44
2021/04/22 03:26:33;;;;;;;25.80;8.80;;;;;;;;;;5033589;28;20033;-43
2021/04/22 03:28:59;;;;;;;43.17;13.68;;;;;;;;;;5033544;28;20065;-44
2021/04/22 03:31:26;;;;;;;38.58;11.82;;;;;;;;;;5033504;28;20107;-43
2021/04/22 03:33:53;;;;;;;29.85;9.27;;;;;;;;;;5033672;28;20048;-43
2021/04/22 03:36:19;;;;;;;31.98;9.10;;;;;;;;;;5033069;28;20041;-43
2021/04/22 03:38:45;;;;;;;27.10;9.25;;;;;;;;;;5033485;28;20022;-42
2021/04/22 03:41:11;;;;;;;23.00;8.73;;;;;;;;;;5033404;28;20031;-42
2021/04/22 03:43:37;;;;;;;20.83;6.65;;;;;;;;;;5033273;28;20022;-43
2021/04/22 03:46:03;;;;;;;25.90;9.00;;;;;;;;;;5033209;28;20037;-43
2021/04/22 03:48:29;;;;;;;35.90;9.50;;;;;;;;;;5032898;28;20025;-42
2021/04/22 03:50:56;;;;;;;32.50;10.70;;;;;;;;;;5033361;28;20033;-43
2021/04/22 03:53:22;;;;;;;19.20;6.38;;;;;;;;;;5033132;28;20096;-43
2021/04/22 03:55:48;;;;;;;16.50;5.50;;;;;;;;;;5033093;28;20032;-42
2021/04/22 03:58:14;;;;;;;8.27;3.80;;;;;;;;;;5033146;28;20109;-43
2021/04/22 04:00:40;;;;;;;11.07;3.75;;;;;;;;;;5033188;28;20405;-42
2021/04/22 04:03:06;;;;;;;11.57;5.13;;;;;;;;;;5032996;28;20025;-42
2021/04/22 04:05:33;;;;;;;13.90;5.55;;;;;;;;;;5032778;28;20041;-43
2021/04/22 04:07:59;;;;;;;13.68;5.13;;;;;;;;;;5032717;28;20052;-45
2021/04/22 04:10:25;;;;;;;10.63;5.57;;;;;;;;;;5032787;28;20509;-42
2021/04/22 04:12:51;;;;;;;11.40;5.57;;;;;;;;;;5032778;28;20032;-42
2021/04/22 04:15:17;;;;;;;12.70;5.78;;;;;;;;;;5032695;28;20025;-45
2021/04/22 04:17:44;;;;;;;12.90;5.82;;;;;;;;;;5033100;28;20397;-43
2021/04/22 04:20:11;;;;;;;16.77;6.10;;;;;;;;;;5032852;28;20095;-43
2021/04/22 04:22:38;;;;;;;11.55;5.80;;;;;;;;;;5032386;28;20038;-43
2021/04/22 04:25:07;;;;;;;16.00;7.38;;;;;;;;;;5032749;28;20021;-43
2021/04/22 04:27:33;;;;;;;14.82;7.80;;;;;;;;;;5032443;28;20025;-45
2021/04/22 04:29:59;;;;;;;14.65;7.10;;;;;;;;;;5032431;28;20029;-44
2021/04/22 04:32:25;;;;;;;11.82;7.20;;;;;;;;;;5032634;28;20085;-43
2021/04/22 04:34:52;;;;;;;12.65;7.00;;;;;;;;;;5032166;28;20057;-43
2021/04/22 04:37:18;;;;;;;11.80;6.65;;;;;;;;;;5032133;28;20029;-42
2021/04/22 04:39:44;;;;;;;13.15;7.18;;;;;;;;;;5032442;28;20036;-43
2021/04/22 04:42:10;;;;;;;13.75;8.13;;;;;;;;;;5032217;28;20111;-42
2021/04/22 04:44:36;;;;;;;15.43;7.57;;;;;;;;;;5032162;28;20039;-43
2021/04/22 04:47:03;;;;;;;14.73;6.75;;;;;;;;;;5032080;28;20068;-44
2021/04/22 04:49:29;;;;;;;13.27;6.97;;;;;;;;;;5032276;28;20030;-43
2021/04/22 04:51:55;;;;;;;17.75;6.72;;;;;;;;;;5031598;28;20480;-43
2021/04/22 04:54:21;;;;;;;10.57;5.00;;;;;;;;;;5032657;28;20354;-43
2021/04/22 04:56:47;;;;;;;13.95;6.50;;;;;;;;;;5032718;28;20075;-45
2021/04/22 04:59:13;;;;;;;13.13;5.63;;;;;;;;;;5032236;28;20474;-43
2021/04/22 05:01:40;;;;;;;13.60;6.55;;;;;;;;;;5032506;28;20033;-43
2021/04/22 05:04:06;;;;;;;13.13;6.15;;;;;;;;;;5032828;28;20025;-45
2021/04/22 05:06:32;;;;;;;11.00;5.50;;;;;;;;;;5032387;28;20036;-43
2021/04/22 05:08:58;;;;;;;7.38;4.50;;;;;;;;;;5032510;28;20049;-43
2021/04/22 05:11:24;;;;;;;8.73;4.20;;;;;;;;;;5032604;28;20065;-45
2021/04/22 05:13:51;;;;;;;7.85;4.88;;;;;;;;;;5032355;28;20052;-43
2021/04/22 05:16:18;;;;;;;10.98;5.30;;;;;;;;;;5032449;28;20029;-42
2021/04/22 05:18:44;;;;;;;9.00;4.93;;;;;;;;;;5032266;28;20056;-46
2021/04/22 05:21:10;;;;;;;12.70;4.22;;;;;;;;;;5032307;28;20025;-42
2021/04/22 05:23:37;;;;;;;7.68;4.03;;;;;;;;;;5032224;28;20130;-43
2021/04/22 05:26:03;;;;;;;9.38;4.80;;;;;;;;;;5032246;28;20045;-42
2021/04/22 05:28:29;;;;;;;11.70;4.75;;;;;;;;;;5031636;28;20111;-46
2021/04/22 05:30:55;;;;;;;8.80;4.40;;;;;;;;;;5031723;28;20463;-45
2021/04/22 05:33:21;;;;;;;12.32;5.00;;;;;;;;;;5031605;28;20061;-43
2021/04/22 05:35:47;;;;;;;11.95;5.82;;;;;;;;;;5031661;28;20056;-43
2021/04/22 05:38:14;;;;;;;10.43;5.20;;;;;;;;;;5032474;28;20060;-43
2021/04/22 05:40:40;;;;;;;8.15;4.90;;;;;;;;;;5032163;28;20025;-43
2021/04/22 05:43:07;;;;;;;8.48;4.07;;;;;;;;;;5032086;28;20112;-43
2021/04/22 05:45:34;;;;;;;9.82;4.63;;;;;;;;;;5032200;28;20049;-46
2021/04/22 05:48:00;;;;;;;14.48;5.97;;;;;;;;;;5031109;28;20020;-42
2021/04/22 05:50:26;;;;;;;14.32;7.35;;;;;;;;;;5032350;28;20427;-44
2021/04/22 05:52:52;;;;;;;15.10;7.93;;;;;;;;;;5031816;28;20036;-45
2021/04/22 05:55:19;;;;;;;12.38;7.03;;;;;;;;;;5032359;28;20033;-43
2021/04/22 05:57:47;;;;;;;15.05;7.68;;;;;;;;;;5031495;28;20028;-43
2021/04/22 06:00:15;;;;;;;15.35;8.48;;;;;;;;;;5032228;28;20373;-44
2021/04/22 06:02:41;;;;;;;15.15;7.20;;;;;;;;;;5032043;28;20365;-43
2021/04/22 06:05:07;;;;;;;13.95;6.32;;;;;;;;;;5031488;28;20021;-44
2021/04/22 06:07:33;;;;;;;21.63;11.13;;;;;;;;;;5029096;28;20584;-43
2021/04/22 06:10:00;;;;;;;11.07;6.00;;;;;;;;;;5030197;28;20030;-44
2021/04/22 06:12:26;;;;;;;7.93;4.72;;;;;;;;;;5032040;28;20025;-44
2021/04/22 06:14:52;;;;;;;8.30;4.88;;;;;;;;;;5033436;28;20136;-43
2021/04/22 06:17:18;;;;;;;7.60;4.00;;;;;;;;;;5033796;28;20334;-46
2021/04/22 06:19:44;;;;;;;7.00;3.40;;;;;;;;;;5033330;28;20036;-44
2021/04/22 06:22:10;;;;;;;6.63;3.25;;;;;;;;;;5033021;28;20323;-44
2021/04/22 06:24:36;;;;;;;10.68;3.90;;;;;;;;;;5032587;28;20029;-47
2021/04/22 06:27:02;;;;;;;8.00;4.20;;;;;;;;;;5033045;28;20038;-43
2021/04/22 06:29:29;;;;;;;11.77;7.50;;;;;;;;;;5033382;28;20034;-44
2021/04/22 06:31:55;;;;;;;7.68;3.50;;;;;;;;;;5032203;28;20021;-45
2021/04/22 06:34:22;;;;;;;9.25;3.20;;;;;;;;;;5032563;28;20040;-48
2021/04/22 06:36:49;;;;;;;5.70;3.40;;;;;;;;;;5033110;28;20123;-43
2021/04/22 06:39:15;;;;;;;6.15;3.00;;;;;;;;;;5032257;28;20036;-45
2021/04/22 06:41:41;;;;;;;6.15;3.00;;;;;;;;;;5031581;28;20095;-45
2021/04/22 06:44:07;;;;;;;6.15;2.90;;;;;;;;;;5031811;28;20071;-44
2021/04/22 06:46:34;;;;;;;5.45;2.83;;;;;;;;;;5033023;28;20441;-44
2021/04/22 06:49:00;;;;;;;6.85;2.47;;;;;;;;;;5032562;28;20095;-45
2021/04/22 06:51:27;;;;;;;6.25;2.58;;;;;;;;;;5033018;28;20038;-45
2021/04/22 06:53:53;;;;;;;10.38;3.13;;;;;;;;;;5032617;28;20064;-46
2021/04/22 06:56:19;;;;;;;7.03;2.80;;;;;;;;;;5032774;28;20045;-44
2021/04/22 06:58:45;;;;;;;5.82;2.85;;;;;;;;;;5032827;28;20052;-46
2021/04/22 07:01:11;;;;;;;6.72;3.10;;;;;;;;;;5031829;28;20044;-48
2021/04/22 07:03:37;;;;;;;13.88;3.75;;;;;;;;;;5031182;28;20112;-51
2021/04/22 07:06:04;;;;;;;10.95;3.22;;;;;;;;;;5031991;28;20082;-47
2021/04/22 07:08:30;;;;;;;5.50;2.67;;;;;;;;;;5032516;28;20422;-45
2021/04/22 07:10:57;;;;;;;5.45;2.65;;;;;;;;;;5032502;28;20072;-44
2021/04/22 07:13:23;;;;;;;11.13;3.33;;;;;;;;;;5032374;28;20426;-46
2021/04/22 07:15:49;;;;;;;6.25;3.38;;;;;;;;;;5032193;28;20087;-45
2021/04/22 07:18:15;;;;;;;5.38;2.92;;;;;;;;;;5031969;28;20036;-45
2021/04/22 07:20:41;;;;;;;5.45;2.70;;;;;;;;;;5031820;28;20024;-45
2021/04/22 07:23:12;;;;;;;7.35;3.15;;;;;;;;;;5030804;28;21006;-44
2021/04/22 07:25:38;;;;;;;10.63;3.53;;;;;;;;;;5031573;28;20125;-48
2021/04/22 07:28:05;;;;;;;11.55;2.95;;;;;;;;;;5032738;28;20124;-44
2021/04/22 07:30:31;;;;;;;12.25;3.58;;;;;;;;;;5031434;28;20037;-45
2021/04/22 07:32:58;;;;;;;6.00;2.60;;;;;;;;;;5032532;28;20372;-46
2021/04/22 07:35:24;;;;;;;6.88;2.70;;;;;;;;;;5031070;28;20580;-45
2021/04/22 08:11:29;;;;;;;8.00;3.17;;;;;;;;;;5032272;28;20124;-45
2021/04/22 08:13:56;;;;;;;6.78;3.08;;;;;;;;;;5030989;28;20030;-49
2021/04/22 08:16:22;;;;;;;8.35;4.70;;;;;;;;;;5031288;28;20096;-45
2021/04/22 08:18:48;;;;;;;5.50;3.00;;;;;;;;;;5029917;28;20365;-49
2021/04/22 08:21:14;;;;;;;5.07;2.67;;;;;;;;;;5031252;28;20031;-45
2021/04/22 08:23:40;;;;;;;5.45;2.42;;;;;;;;;;5029552;28;20026;-46
2021/04/22 08:26:08;;;;;;;10.07;2.92;;;;;;;;;;5031281;28;20420;-46
2021/04/22 08:28:35;;;;;;;5.05;2.30;;;;;;;;;;5029388;28;20033;-46
2021/04/22 08:31:05;;;;;;;4.18;1.88;;;;;;;;;;5031336;28;20380;-48
2021/04/22 08:33:33;;;;;;;7.63;2.20;;;;;;;;;;5031456;28;20021;-46
2021/04/22 08:36:00;;;;;;;5.20;2.33;;;;;;;;;;5031083;28;20049;-45
2021/04/22 08:38:26;;;;;;;3.30;1.98;;;;;;;;;;5029906;28;20017;-46
2021/04/22 08:40:53;;;;;;;4.30;2.20;;;;;;;;;;5030705;28;20034;-47
2021/04/22 08:43:20;;;;;;;6.00;2.85;;;;;;;;;;5031093;28;20030;-46
2021/04/22 08:45:46;;;;;;;6.90;3.03;;;;;;;;;;5031702;28;20191;-45
2021/04/22 08:54:19;;;;;;;8.57;3.13;;;;;;;;;;5027987;28;20041;-45
2021/04/22 08:56:45;;;;;;;6.30;2.67;;;;;;;;;;5032661;28;20033;-46
2021/04/22 08:59:12;;;;;;;6.28;3.08;;;;;;;;;;5032233;28;20453;-44
2021/04/22 09:01:38;;;;;;;3.88;2.03;;;;;;;;;;5032605;28;20021;-47
2021/04/22 09:04:06;;;;;;;3.88;2.10;;;;;;;;;;5032504;28;20460;-46
2021/04/22 09:06:34;;;;;;;4.82;2.40;;;;;;;;;;5032017;28;20042;-44
2021/04/22 09:09:00;;;;;;;5.22;2.30;;;;;;;;;;5030307;28;20380;-46
2021/04/22 09:11:27;;;;;;;5.57;1.80;;;;;;;;;;5031635;28;20029;-48
2021/04/22 09:13:54;;;;;;;6.13;1.77;;;;;;;;;;5026184;28;20490;-46
2021/04/22 09:19:25;;;;;;;4.65;2.08;;;;;;;;;;5031031;28;20048;-47
2021/04/22 09:21:56;;;;;;;6.55;1.92;;;;;;;;;;5031983;28;20038;-49
2021/04/22 09:24:23;;;;;;;5.50;1.83;;;;;;;;;;5031738;28;20022;-48
2021/04/22 09:26:50;;;;;;;10.10;2.47;;;;;;;;;;5031074;28;20037;-48
2021/04/22 09:29:29;;;;;;;7.22;1.95;;;;;;;;;;5030995;28;20124;-50
2021/04/22 09:31:55;;;;;;;4.18;1.90;;;;;;;;;;5031531;28;20449;-51
2021/04/22 09:34:22;;;;;;;6.50;1.88;;;;;;;;;;5031809;28;20025;-49
2021/04/22 09:36:48;;;;;;;8.45;2.03;;;;;;;;;;4994694;28;20053;-44
2021/04/22 09:39:17;;;;;;;4.43;1.67;;;;;;;;;;5011968;28;20026;-46
2021/04/22 09:41:43;;;;;;;5.30;1.83;;;;;;;;;;5011804;28;20044;-55
2021/04/22 09:44:10;;;;;;;4.05;1.83;;;;;;;;;;5011380;28;20468;-48
2021/04/22 09:46:41;;;;;;;3.15;1.52;;;;;;;;;;5013819;28;20045;-46
2021/04/22 09:49:09;;;;;;;2.30;1.27;;;;;;;;;;5014976;28;20542;-48
2021/04/22 09:51:37;;;;;;;3.15;1.48;;;;;;;;;;5015917;28;20032;-55
2021/04/22 09:54:03;;;;;;;2.42;1.48;;;;;;;;;;5015326;28;20357;-48
2021/04/22 09:56:38;;;;;;;5.38;1.80;;;;;;;;;;5013007;28;20050;-46
2021/04/22 09:59:11;;;;;;;3.35;1.65;;;;;;;;;;5014591;28;20032;-50
2021/04/22 10:01:38;;;;;;;4.43;2.03;;;;;;;;;;5013762;28;20818;-49
2021/04/22 10:04:04;;;;;;;3.97;1.73;;;;;;;;;;4997972;28;20026;-56
2021/04/22 10:06:40;;;;;;;4.82;1.73;;;;;;;;;;5015175;28;20113;-48
2021/04/22 10:09:06;;;;;;;4.13;2.08;;;;;;;;;;5015813;28;20032;-48
2021/04/22 10:11:51;;;;;;;5.00;1.92;;;;;;;;;;5015069;28;20105;-52
2021/04/22 10:14:38;;;;;;;5.50;2.03;;;;;;;;;;4995873;28;20026;-51
2021/04/22 10:17:17;;;;;;;3.50;1.77;;;;;;;;;;5003519;28;20022;-45
2021/04/22 10:19:55;;;;;;;3.38;1.77;;;;;;;;;;5015034;28;20025;-46
2021/04/22 10:22:35;;;;;;;3.85;1.80;;;;;;;;;;5014261;28;20033;-48
2021/04/22 10:25:03;;;;;;;7.03;1.85;;;;;;;;;;5015292;28;20026;-44
2021/04/22 10:27:30;;;;;;;3.53;1.52;;;;;;;;;;5015423;28;20041;-46
2021/04/22 10:29:57;;;;;;;2.45;1.20;;;;;;;;;;5015844;28;20022;-45
2021/04/22 10:32:24;;;;;;;3.70;1.45;;;;;;;;;;5015807;28;20064;-45
2021/04/22 10:34:53;;;;;;;3.42;1.40;;;;;;;;;;5018330;28;20033;-50
2021/04/22 10:37:21;;;;;;;3.47;1.80;;;;;;;;;;5035254;28;20377;-49
2021/04/22 10:39:48;;;;;;;3.65;1.45;;;;;;;;;;5035113;28;20026;-46
2021/04/22 10:42:16;;;;;;;5.68;1.58;;;;;;;;;;5034843;28;20064;-48
2021/04/22 10:44:42;;;;;;;3.90;1.40;;;;;;;;;;5035410;28;20032;-54
2021/04/22 10:47:08;;;;;;;2.53;1.30;;;;;;;;;;5035246;28;20369;-45
2021/04/22 10:49:34;;;;;;;4.15;1.48;;;;;;;;;;5034950;28;20028;-45
2021/04/22 10:52:01;;;;;;;1.98;1.10;;;;;;;;;;5034930;28;20025;-46
2021/04/22 10:54:28;;;;;;;2.15;1.00;;;;;;;;;;5035362;28;20385;-46
2021/04/22 10:57:08;;;;;;;2.92;1.27;;;;;;;;;;5034582;28;20113;-46
2021/04/22 10:59:35;;;;;;;2.70;1.10;;;;;;;;;;5034560;28;20083;-48
2021/04/22 11:02:21;;;;;;;2.58;0.90;;;;;;;;;;5034831;28;20033;-49
2021/04/22 11:04:48;;;;;;;8.73;1.42;;;;;;;;;;5034521;28;20500;-55
2021/04/22 11:07:21;;;;;;;6.40;1.38;;;;;;;;;;5034526;28;20033;-54
2021/04/22 11:09:47;;;;;;;18.23;1.70;;;;;;;;;;5034954;28;20036;-47
2021/04/22 11:12:21;;;;;;;1.67;0.85;;;;;;;;;;5034496;28;20033;-47
2021/04/22 11:14:51;;;;;;;4.07;1.00;;;;;;;;;;5034870;28;20033;-50
2021/04/22 11:17:17;;;;;;;1.90;0.85;;;;;;;;;;5034537;28;20045;-47
2021/04/22 11:19:44;;;;;;;4.10;0.90;;;;;;;;;;5034721;28;20445;-48
2021/04/22 11:22:16;;;;;;;4.38;1.02;;;;;;;;;;5034444;28;20026;-55
2021/04/22 11:24:52;;;;;;;3.10;1.00;;;;;;;;;;5034443;28;20083;-46
2021/04/22 11:27:18;;;;;;;1.92;0.82;;;;;;;;;;5034372;28;20049;-48
2021/04/22 11:29:50;;;;;;;1.45;0.80;;;;;;;;;;5034323;28;20025;-46
2021/04/22 11:32:21;;;;;;;1.83;0.90;;;;;;;;;;5034791;28;20083;-47
2021/04/22 11:34:47;;;;;;;1.70;0.90;;;;;;;;;;5034290;28;20025;-47
2021/04/22 11:37:16;;;;;;;2.05;0.98;;;;;;;;;;5034197;28;20469;-53
2021/04/22 11:39:43;;;;;;;1.80;0.80;;;;;;;;;;5034025;28;20025;-50
2021/04/22 11:42:09;;;;;;;4.47;1.08;;;;;;;;;;5034017;28;20449;-48
2021/04/22 11:44:49;;;;;;;2.38;1.00;;;;;;;;;;5034048;28;20030;-48
2021/04/22 11:47:20;;;;;;;2.72;0.88;;;;;;;;;;5033987;28;20504;-53
2021/04/22 11:49:47;;;;;;;3.92;0.93;;;;;;;;;;5033978;28;20022;-48
2021/04/22 11:52:17;;;;;;;2.20;0.90;;;;;;;;;;5033934;28;20635;-54
2021/04/22 11:54:44;;;;;;;2.13;0.70;;;;;;;;;;5033940;28;20465;-53
2021/04/22 11:57:10;;;;;;;3.53;2.17;;;;;;;;;;5033963;28;20022;-54
2021/04/22 11:59:36;;;;;;;1.55;0.82;;;;;;;;;;5034077;28;20014;-52
2021/04/22 12:02:07;;;;;;;4.47;1.10;;;;;;;;;;5034074;28;20083;-47
2021/04/22 12:04:38;;;;;;;1.83;0.70;;;;;;;;;;5033755;28;20029;-49
2021/04/22 12:07:08;;;;;;;3.90;1.10;;;;;;;;;;5033765;28;20389;-49
2021/04/22 12:09:34;;;;;;;2.33;1.05;;;;;;;;;;5033419;28;20454;-55
2021/04/22 12:12:18;;;;;;;2.80;1.00;;;;;;;;;;5033755;28;20398;-50
2021/04/22 12:14:45;;;;;;;2.88;0.90;;;;;;;;;;5033565;28;20029;-48
2021/04/22 12:17:41;;;;;;;1.95;0.70;;;;;;;;;;5033725;28;20105;-50
2021/04/22 12:20:08;;;;;;;3.30;0.90;;;;;;;;;;5020703;28;20033;-49
2021/04/22 12:22:36;;;;;;;12.85;1.42;;;;;;;;;;5033078;28;20061;-48
2021/04/22 12:25:04;;;;;;;1.67;0.88;;;;;;;;;;5033490;28;20033;-51
2021/04/22 12:27:35;;;;;;;3.08;1.08;;;;;;;;;;5033229;28;20033;-48
2021/04/22 12:30:13;;;;;;;3.22;1.10;;;;;;;;;;5033253;28;20032;-52
2021/04/22 12:32:47;;;;;;;2.00;0.80;;;;;;;;;;5033144;28;20026;-50
2021/04/22 12:35:18;;;;;;;4.18;1.00;;;;;;;;;;5033085;28;20072;-48
2021/04/22 12:37:44;;;;;;;7.43;1.48;;;;;;;;;;5033319;28;20323;-49
2021/04/22 12:40:10;;;;;;;3.42;1.00;;;;;;;;;;5033128;28;20037;-48
2021/04/22 12:42:36;;;;;;;3.15;1.10;;;;;;;;;;5032817;28;20025;-51
2021/04/22 12:45:12;;;;;;;4.80;1.02;;;;;;;;;;5032774;28;20033;-50
2021/04/22 12:47:41;;;;;;;4.78;1.17;;;;;;;;;;5032829;28;20037;-53
2021/04/22 12:50:10;;;;;;;4.47;0.98;;;;;;;;;;5032847;28;20048;-47
2021/04/22 12:52:36;;;;;;;3.53;1.30;;;;;;;;;;5032807;28;20056;-51
2021/04/22 12:55:05;;;;;;;2.35;1.00;;;;;;;;;;5032969;28;20056;-48
2021/04/22 12:57:32;;;;;;;3.45;1.20;;;;;;;;;;5032638;28;20025;-45
2021/04/22 12:59:58;;;;;;;1.35;0.80;;;;;;;;;;5033011;28;20087;-47
2021/04/22 13:02:24;;;;;;;2.47;1.00;;;;;;;;;;5032702;28;20083;-47
2021/04/22 13:04:58;;;;;;;3.92;1.10;;;;;;;;;;5032721;28;20025;-46
2021/04/22 13:07:32;;;;;;;2.03;1.10;;;;;;;;;;5032286;28;20043;-47
2021/04/22 13:09:58;;;;;;;2.05;0.90;;;;;;;;;;5032297;28;20052;-46
2021/04/22 13:12:24;;;;;;;2.67;1.00;;;;;;;;;;5031980;28;20035;-47
2021/04/22 13:14:50;;;;;;;6.88;1.45;;;;;;;;;;5032325;28;20022;-46
2021/04/22 13:17:17;;;;;;;1.83;1.00;;;;;;;;;;5031961;28;20075;-52
2021/04/22 13:19:44;;;;;;;4.72;1.25;;;;;;;;;;5032631;28;20112;-46
2021/04/22 13:22:13;;;;;;;3.50;1.08;;;;;;;;;;5031829;28;20029;-51
2021/04/22 13:24:40;;;;;;;1.58;1.00;;;;;;;;;;5032586;28;20030;-47
2021/04/22 13:27:08;;;;;;;2.03;1.10;;;;;;;;;;5032059;28;20049;-48
2021/04/22 13:29:35;;;;;;;2.17;1.00;;;;;;;;;;5032365;28;20461;-46
2021/04/22 13:32:04;;;;;;;4.13;1.00;;;;;;;;;;5032292;28;20021;-46
2021/04/22 13:34:38;;;;;;;4.72;0.95;;;;;;;;;;5031955;28;20038;-50
2021/04/22 13:37:04;;;;;;;1.67;0.90;;;;;;;;;;5032333;28;20033;-49
2021/04/22 13:39:35;;;;;;;3.05;1.02;;;;;;;;;;5032474;28;20056;-47
2021/04/22 13:42:01;;;;;;;3.42;1.00;;;;;;;;;;5031541;28;20044;-46
2021/04/22 13:44:28;;;;;;;7.07;1.65;;;;;;;;;;5032374;28;20022;-55
2021/04/22 13:46:56;;;;;;;6.05;1.08;;;;;;;;;;5032224;28;20427;-46
2021/04/22 13:49:23;;;;;;;2.97;1.30;;;;;;;;;;5032030;28;20025;-47
2021/04/22 13:51:50;;;;;;;1.80;1.10;;;;;;;;;;5032254;28;20083;-47
2021/04/22 13:54:17;;;;;;;3.03;1.00;;;;;;;;;;5032303;28;20057;-47
2021/04/22 13:56:44;;;;;;;7.80;1.33;;;;;;;;;;5032231;28;20025;-46
2021/04/22 13:59:36;;;;;;;1.65;0.95;;;;;;;;;;5032007;28;20029;-47
2021/04/22 14:02:05;;;;;;;3.05;0.93;;;;;;;;;;5028851;28;20136;-46
2021/04/22 14:04:31;;;;;;;4.43;1.70;;;;;;;;;;5031998;28;20099;-48
2021/04/22 14:06:58;;;;;;;3.38;1.15;;;;;;;;;;5031998;28;20061;-47
2021/04/22 14:09:25;;;;;;;3.20;1.10;;;;;;;;;;5031866;28;20030;-47
2021/04/22 14:11:51;;;;;;;3.33;1.13;;;;;;;;;;5032062;28;20378;-49
2021/04/22 14:14:18;;;;;;;3.75;1.15;;;;;;;;;;5031910;28;20327;-49
2021/04/22 14:16:48;;;;;;;5.72;1.10;;;;;;;;;;5031826;28;20025;-46
2021/04/22 14:19:23;;;;;;;2.00;1.00;;;;;;;;;;5031646;28;20033;-46
2021/04/22 14:21:51;;;;;;;2.97;0.95;;;;;;;;;;5031647;28;20116;-47
2021/04/22 14:24:17;;;;;;;3.22;0.90;;;;;;;;;;5031978;28;20048;-47
2021/04/22 14:26:45;;;;;;;1.92;1.00;;;;;;;;;;5031654;28;20088;-48
2021/04/22 14:29:14;;;;;;;2.83;1.27;;;;;;;;;;5031525;28;20060;-46
2021/04/22 14:31:40;;;;;;;1.98;0.90;;;;;;;;;;5032160;28;20030;-46
2021/04/22 14:34:07;;;;;;;2.53;1.08;;;;;;;;;;5035669;28;20374;-46
2021/04/22 14:36:33;;;;;;;3.35;1.10;;;;;;;;;;5035307;28;20077;-46
2021/04/22 14:39:00;;;;;;;7.28;1.42;;;;;;;;;;5035260;28;20045;-47
2021/04/22 14:41:26;;;;;;;3.35;1.20;;;;;;;;;;5035589;28;20104;-46
2021/04/22 14:43:53;;;;;;;2.15;1.00;;;;;;;;;;5035336;28;20037;-46
2021/04/22 14:46:19;;;;;;;1.70;0.90;;;;;;;;;;5035097;28;20527;-46
2021/04/22 14:48:45;;;;;;;2.50;0.95;;;;;;;;;;5035330;28;20175;-46
2021/04/22 14:51:11;;;;;;;1.60;0.75;;;;;;;;;;5035231;28;20030;-46
2021/04/22 14:53:37;;;;;;;2.92;0.90;;;;;;;;;;5035411;28;20363;-46
2021/04/22 14:56:04;;;;;;;2.85;1.00;;;;;;;;;;5035061;28;20030;-49
2021/04/22 14:58:30;;;;;;;3.10;1.10;;;;;;;;;;5034810;28;20024;-47
2021/04/22 15:00:56;;;;;;;6.40;1.75;;;;;;;;;;5034885;28;20469;-48
2021/04/22 15:03:22;;;;;;;4.30;1.70;;;;;;;;;;5034802;28;20449;-46
2021/04/22 15:05:48;;;;;;;5.28;2.65;;;;;;;;;;5034759;28;20060;-46
2021/04/22 15:08:15;;;;;;;5.60;3.15;;;;;;;;;;5034756;28;20081;-46
2021/04/22 15:10:42;;;;;;;10.93;4.10;;;;;;;;;;5035089;28;20095;-45
2021/04/22 15:13:09;;;;;;;8.02;4.00;;;;;;;;;;5034926;28;20025;-46
2021/04/22 15:15:35;;;;;;;9.50;4.53;;;;;;;;;;5034788;28;20036;-47
2021/04/22 15:18:02;;;;;;;5.85;2.58;;;;;;;;;;5034585;28;20045;-46
2021/04/22 15:20:28;;;;;;;5.43;2.10;;;;;;;;;;5034838;28;20036;-45
2021/04/22 15:22:58;;;;;;;6.28;3.00;;;;;;;;;;5034778;28;20158;-47
2021/04/22 15:25:24;;;;;;;5.78;2.78;;;;;;;;;;5034414;28;20497;-46
2021/04/22 15:27:51;;;;;;;7.03;2.90;;;;;;;;;;5034599;28;20108;-46